createdAt,value
2019-04-20T00:00:44.526Z,102085.48
2019-04-20T00:03:11.701Z,102088.31
2019-04-20T00:05:43.425Z,102082.31
2019-04-20T00:08:19.621Z,102087.63
2019-04-20T00:10:54.282Z,102086.60
2019-04-20T00:13:25.504Z,102083.58
2019-04-20T00:15:47.120Z,102082.88
2019-04-20T00:18:16.986Z,102083.27
2019-04-20T00:21:03.873Z,102076.62
2019-04-20T00:23:45.365Z,102077.78
2019-04-20T00:26:56.442Z,102076.77
2019-04-20T00:29:18.743Z,102073.05
2019-04-20T00:31:44.326Z,102067.17
2019-04-20T00:34:08.016Z,102073.36
2019-04-20T00:36:30.734Z,102072.47
2019-04-20T00:39:03.777Z,102072.78
2019-04-20T00:41:34.092Z,102070.74
2019-04-20T00:44:06.839Z,102068.91
2019-04-20T00:46:49.034Z,102068.06
2019-04-20T00:49:20.779Z,102072.69
2019-04-20T00:51:50.988Z,102072.67
2019-04-20T00:54:07.373Z,102070.67
2019-04-20T00:56:37.066Z,102068.86
2019-04-20T00:59:20.746Z,102064.37
2019-04-20T01:02:00.572Z,102066.50
2019-04-20T01:04:27.192Z,102067.59
2019-04-20T01:07:11.649Z,102073.89
2019-04-20T01:09:47.830Z,102078.56
2019-04-20T01:12:22.949Z,102076.58
2019-04-20T01:14:55.233Z,102077.73
2019-04-20T01:17:20.485Z,102074.70
2019-04-20T01:19:52.789Z,102080.51
2019-04-20T01:22:24.120Z,102084.13
2019-04-20T01:24:53.374Z,102078.07
2019-04-20T01:27:32.593Z,102078.13
2019-04-20T01:30:06.992Z,102086.99
2019-04-20T01:32:34.291Z,102083.95
2019-04-20T01:35:14.016Z,102078.91
2019-04-20T01:37:40.902Z,102080.06
2019-04-20T01:40:01.116Z,102084.92
2019-04-20T01:42:30.043Z,102083.57
2019-04-20T01:45:00.310Z,102080.67
2019-04-20T01:47:36.063Z,102077.69
2019-04-20T01:50:08.516Z,102075.88
2019-04-20T01:52:47.044Z,102082.05
2019-04-20T01:55:38.710Z,102084.53
2019-04-20T01:58:27.726Z,102087.99
2019-04-20T02:00:55.895Z,102086.94
2019-04-20T02:03:46.186Z,102088.25
2019-04-20T02:06:16.764Z,102087.17
2019-04-20T02:08:44.114Z,102088.48
2019-04-20T02:11:21.309Z,102082.77
2019-04-20T02:13:52.888Z,102088.41
2019-04-20T02:16:25.850Z,102085.55
2019-04-20T02:19:06.547Z,102095.42
2019-04-20T02:21:33.959Z,102092.40
2019-04-20T02:23:54.699Z,102097.59
2019-04-20T02:26:20.023Z,102090.93
2019-04-20T02:29:18.950Z,102089.55
2019-04-20T02:32:06.666Z,102086.50
2019-04-20T02:34:47.825Z,102084.11
2019-04-20T02:39:57.967Z,102088.19
2019-04-20T02:42:19.695Z,102095.79
2019-04-20T02:44:51.766Z,102096.08
2019-04-20T02:47:14.864Z,102099.27
2019-04-20T02:49:40.408Z,102096.77
2019-04-20T02:54:47.259Z,102089.24
2019-04-20T02:57:18.678Z,102091.97
2019-04-20T02:59:58.804Z,102094.72
2019-04-20T03:02:05.059Z,102097.19
2019-04-20T03:04:29.541Z,102091.67
2019-04-20T03:07:04.814Z,102089.81
2019-04-20T03:09:39.658Z,102089.62
2019-04-20T03:12:16.999Z,102083.98
2019-04-20T03:14:39.348Z,102086.02
2019-04-20T03:17:18.267Z,102083.00
2019-04-20T03:19:41.219Z,102087.28
2019-04-20T03:22:24.640Z,102086.60
2019-04-20T03:24:49.833Z,102085.56
2019-04-20T03:27:18.355Z,102086.17
2019-04-20T03:29:56.402Z,102091.27
2019-04-20T03:33:14.587Z,102083.89
2019-04-20T03:35:20.716Z,102096.87
2019-04-20T03:37:48.694Z,102093.33
2019-04-20T03:40:10.281Z,102099.91
2019-04-20T03:42:28.907Z,102094.58
2019-04-20T03:45:04.146Z,102090.95
2019-04-20T03:47:39.323Z,102092.20
2019-04-20T03:50:27.356Z,102101.34
2019-04-20T03:52:57.991Z,102100.30
2019-04-20T03:55:39.686Z,102100.79
2019-04-20T03:58:18.641Z,102093.80
2019-04-20T04:01:22.718Z,102099.47
2019-04-20T04:04:12.143Z,102101.34
2019-04-20T04:06:33.113Z,102103.03
2019-04-20T04:09:07.247Z,102104.69
2019-04-20T04:11:37.893Z,102094.14
2019-04-20T04:13:56.671Z,102104.73
2019-04-20T04:16:34.169Z,102101.88
2019-04-20T04:19:07.515Z,102097.84
2019-04-20T04:21:44.692Z,102100.44
2019-04-20T04:24:12.870Z,102098.17
2019-04-20T04:26:48.871Z,102098.73
2019-04-20T04:29:27.177Z,102098.97
2019-04-20T04:32:02.329Z,102101.42
2019-04-20T04:34:22.967Z,102105.77
2019-04-20T04:36:59.432Z,102104.27
2019-04-20T04:39:32.225Z,102102.82
2019-04-20T04:42:09.110Z,102105.32
2019-04-20T04:44:25.561Z,102109.80
2019-04-20T04:46:49.263Z,102101.81
2019-04-20T04:49:20.691Z,102106.45
2019-04-20T04:51:51.960Z,102112.78
2019-04-20T04:54:26.753Z,102116.12
2019-04-20T04:56:46.350Z,102111.52
2019-04-20T04:59:17.134Z,102111.92
2019-04-20T05:01:50.607Z,102108.28
2019-04-20T05:04:40.317Z,102111.70
2019-04-20T05:07:05.237Z,102117.41
2019-04-20T05:09:22.649Z,102120.11
2019-04-20T05:12:01.473Z,102124.30
2019-04-20T05:14:38.761Z,102120.86
2019-04-20T05:17:11.689Z,102129.23
2019-04-20T05:19:51.180Z,102126.97
2019-04-20T05:22:29.174Z,102126.02
2019-04-20T05:24:58.703Z,102131.77
2019-04-20T05:27:46.547Z,102140.53
2019-04-20T05:29:57.058Z,102131.19
2019-04-20T05:32:35.896Z,102128.80
2019-04-20T05:35:21.711Z,102130.89
2019-04-20T05:37:53.045Z,102135.97
2019-04-20T05:40:25.067Z,102125.02
2019-04-20T05:43:10.650Z,102129.77
2019-04-20T05:45:38.836Z,102131.17
2019-04-20T05:48:11.771Z,102125.73
2019-04-20T05:50:46.954Z,102126.83
2019-04-20T05:53:19.349Z,102129.56
2019-04-20T05:55:48.862Z,102133.50
2019-04-20T05:58:22.329Z,102133.59
2019-04-20T06:00:55.480Z,102133.68
2019-04-20T06:03:20.267Z,102131.23
2019-04-20T06:05:59.393Z,102132.13
2019-04-20T06:08:33.088Z,102135.22
2019-04-20T06:10:56.399Z,102132.92
2019-04-20T06:13:32.742Z,102131.58
2019-04-20T06:16:13.850Z,102131.75
2019-04-20T06:19:04.321Z,102132.55
2019-04-20T06:24:10.368Z,102127.67
2019-04-20T06:26:49.003Z,102133.15
2019-04-20T06:29:10.069Z,102131.11
2019-04-20T06:31:48.648Z,102126.70
2019-04-20T06:34:30.584Z,102129.04
2019-04-20T06:39:30.948Z,102132.63
2019-04-20T06:42:14.712Z,102135.11
2019-04-20T06:52:20.343Z,102145.73
2019-04-20T06:55:03.380Z,102142.80
2019-04-20T06:57:35.654Z,102147.89
2019-04-20T07:00:14.147Z,102142.99
2019-04-20T07:02:42.852Z,102145.34
2019-04-20T07:05:13.045Z,102146.14
2019-04-20T07:07:45.473Z,102146.38
2019-04-20T07:10:19.405Z,102148.81
2019-04-20T07:12:43.666Z,102144.81
2019-04-20T07:15:09.747Z,102143.34
2019-04-20T07:20:56.711Z,102146.67
2019-04-20T07:25:58.558Z,102149.45
2019-04-20T07:28:27.728Z,102148.33
2019-04-20T07:30:56.886Z,102151.20
2019-04-20T07:33:27.048Z,102158.95
2019-04-20T07:35:50.740Z,102156.04
2019-04-20T07:40:56.281Z,102156.48
2019-04-20T07:43:28.372Z,102155.35
2019-04-20T07:46:02.756Z,102157.44
2019-04-20T07:48:27.774Z,102156.13
2019-04-20T07:50:55.498Z,102157.47
2019-04-20T07:53:30.539Z,102154.28
2019-04-20T07:56:09.179Z,102150.46
2019-04-20T07:58:25.087Z,102157.75
2019-04-20T08:01:22.583Z,102157.31
2019-04-20T08:03:55.685Z,102154.80
2019-04-20T08:06:24.511Z,102153.58
2019-04-20T08:09:02.797Z,102155.83
2019-04-20T08:11:44.812Z,102147.20
2019-04-20T08:14:13.326Z,102149.63
2019-04-20T08:16:54.592Z,102145.64
2019-04-20T08:19:14.747Z,102138.06
2019-04-20T08:21:43.785Z,102140.95
2019-04-20T08:24:15.939Z,102141.29
2019-04-20T08:26:30.923Z,102146.02
2019-04-20T08:29:29.053Z,102137.34
2019-04-20T08:32:17.851Z,102140.20
2019-04-20T08:34:55.970Z,102140.02
2019-04-20T08:37:21.188Z,102143.51
2019-04-20T08:42:22.530Z,102141.14
2019-04-20T08:47:42.272Z,102139.37
2019-04-20T08:50:19.858Z,102137.77
2019-04-20T08:55:16.540Z,102134.91
2019-04-20T08:57:29.329Z,102133.03
2019-04-20T09:00:02.532Z,102136.27
2019-04-20T09:02:30.485Z,102136.99
2019-04-20T09:05:05.279Z,102128.25
2019-04-20T09:07:35.086Z,102126.86
2019-04-20T09:10:28.261Z,102126.86
2019-04-20T09:12:50.352Z,102127.90
2019-04-20T09:15:05.958Z,102122.02
2019-04-20T09:17:54.100Z,102119.38
2019-04-20T09:20:31.897Z,102120.53
2019-04-20T09:23:18.626Z,102122.36
2019-04-20T09:26:03.141Z,102114.27
2019-04-20T09:28:36.318Z,102120.85
2019-04-20T09:31:18.051Z,102122.48
2019-04-20T09:34:04.285Z,102119.73
2019-04-20T09:37:12.904Z,102123.81
2019-04-20T09:39:39.318Z,102122.39
2019-04-20T09:42:06.295Z,102122.84
2019-04-20T09:44:40.953Z,102118.22
2019-04-20T09:47:08.608Z,102121.40
2019-04-20T09:49:49.197Z,102116.50
2019-04-20T09:52:22.290Z,102117.95
2019-04-20T09:54:55.161Z,102109.04
2019-04-20T09:57:30.955Z,102117.21
2019-04-20T09:59:57.492Z,102114.77
2019-04-20T10:02:19.758Z,102105.86
2019-04-20T10:04:44.162Z,102110.63
2019-04-20T10:07:18.034Z,102104.39
2019-04-20T10:09:46.662Z,102108.66
2019-04-20T10:12:15.920Z,102103.73
2019-04-20T10:14:46.756Z,102104.95
2019-04-20T10:17:16.173Z,102105.63
2019-04-20T10:19:46.584Z,102099.20
2019-04-20T10:22:16.670Z,102094.64
2019-04-20T10:24:49.202Z,102099.40
2019-04-20T10:27:17.070Z,102094.37
2019-04-20T10:29:46.433Z,102099.75
2019-04-20T10:32:17.553Z,102095.25
2019-04-20T10:34:46.660Z,102094.98
2019-04-20T10:37:29.436Z,102099.39
2019-04-20T10:39:58.660Z,102099.00
2019-04-20T10:42:28.174Z,102098.02
2019-04-20T10:44:59.447Z,102092.78
2019-04-20T10:47:29.385Z,102098.89
2019-04-20T10:49:58.998Z,102091.39
2019-04-20T10:52:29.710Z,102092.92
2019-04-20T10:55:00.548Z,102088.50
2019-04-20T10:57:31.176Z,102089.12
2019-04-20T11:00:01.781Z,102089.90
2019-04-20T11:02:31.936Z,102089.32
2019-04-20T11:05:02.589Z,102089.38
2019-04-20T11:07:32.529Z,102094.48
2019-04-20T11:10:13.389Z,102088.41
2019-04-20T11:12:34.501Z,102089.44
2019-04-20T11:15:03.918Z,102089.78
2019-04-20T11:17:33.627Z,102080.73
2019-04-20T11:20:03.371Z,102085.09
2019-04-20T11:22:32.853Z,102090.75
2019-04-20T11:25:02.254Z,102084.94
2019-04-20T11:27:32.198Z,102079.09
2019-04-20T11:30:02.612Z,102073.77
2019-04-20T11:32:31.932Z,102077.97
2019-04-20T11:35:11.097Z,102073.72
2019-04-20T11:37:33.182Z,102073.42
2019-04-20T11:40:03.255Z,102059.52
2019-04-20T11:42:32.834Z,102067.86
2019-04-20T11:45:02.754Z,102061.55
2019-04-20T11:47:33.602Z,102058.52
2019-04-20T11:50:03.752Z,102058.11
2019-04-20T11:52:38.861Z,102056.52
2019-04-20T11:55:04.602Z,102053.89
2019-04-20T11:57:35.396Z,102052.69
2019-04-20T12:00:05.452Z,102049.33
2019-04-20T12:02:42.564Z,102041.12
2019-04-20T12:05:21.273Z,102039.36
2019-04-20T12:07:57.014Z,102044.26
2019-04-20T12:10:27.978Z,102039.70
2019-04-20T12:12:57.707Z,102036.52
2019-04-20T12:15:26.928Z,102025.63
2019-04-20T12:17:57.712Z,102027.81
2019-04-20T12:20:27.454Z,102025.36
2019-04-20T12:22:58.050Z,102023.98
2019-04-20T12:25:31.585Z,102013.88
2019-04-20T12:28:01.951Z,102019.93
2019-04-20T12:30:30.845Z,102016.63
2019-04-20T12:33:02.173Z,102012.72
2019-04-20T12:35:32.012Z,102008.89
2019-04-20T12:38:01.515Z,102007.59
2019-04-20T12:40:32.278Z,102011.66
2019-04-20T12:43:02.110Z,102016.36
2019-04-20T12:45:33.561Z,102006.98
2019-04-20T12:48:03.959Z,101997.14
2019-04-20T12:50:33.255Z,102000.20
2019-04-20T12:53:02.703Z,102003.16
2019-04-20T12:55:32.561Z,101993.82
2019-04-20T12:58:02.818Z,101997.78
2019-04-20T13:00:49.827Z,101989.78
2019-04-20T13:03:19.588Z,101993.49
2019-04-20T13:05:50.085Z,101993.80
2019-04-20T13:08:27.323Z,101992.23
2019-04-20T13:11:04.578Z,101989.30
2019-04-20T13:13:44.210Z,101984.60
2019-04-20T13:16:20.536Z,101977.55
2019-04-20T13:19:08.915Z,101982.65
2019-04-20T13:21:39.081Z,101965.75
2019-04-20T13:24:09.296Z,101977.14
2019-04-20T13:26:39.051Z,101969.17
2019-04-20T13:29:08.744Z,101968.75
2019-04-20T13:31:38.267Z,101968.13
2019-04-20T13:34:07.671Z,101961.84
2019-04-20T13:36:38.114Z,101961.30
2019-04-20T13:39:08.529Z,101965.67
2019-04-20T13:41:38.106Z,101965.80
2019-04-20T13:44:08.378Z,101961.16
2019-04-20T13:46:38.832Z,101963.91
2019-04-20T13:49:09.309Z,101955.21
2019-04-20T13:51:39.144Z,101956.19
2019-04-20T13:54:13.870Z,101950.78
2019-04-20T13:56:39.792Z,101950.01
2019-04-20T13:59:28.116Z,101946.84
2019-04-20T14:02:22.797Z,101941.34
2019-04-20T14:04:55.193Z,101937.58
2019-04-20T14:07:25.520Z,101937.81
2019-04-20T14:09:55.345Z,101936.50
2019-04-20T14:12:30.679Z,101926.08
2019-04-20T14:14:57.300Z,101935.77
2019-04-20T14:17:26.829Z,101924.02
2019-04-20T14:19:57.150Z,101925.37
2019-04-20T14:22:27.194Z,101919.48
2019-04-20T14:24:57.301Z,101919.08
2019-04-20T14:27:26.825Z,101914.10
2019-04-20T14:29:57.096Z,101912.55
2019-04-20T14:32:27.080Z,101913.64
2019-04-20T14:34:56.826Z,101908.77
2019-04-20T14:37:26.774Z,101905.77
2019-04-20T14:39:56.559Z,101911.72
2019-04-20T14:42:35.556Z,101912.61
2019-04-20T14:44:57.535Z,101910.97
2019-04-20T14:47:27.922Z,101905.95
2019-04-20T14:49:59.687Z,101902.77
2019-04-20T14:52:29.355Z,101902.92
2019-04-20T14:54:59.528Z,101896.59
2019-04-20T14:57:29.828Z,101896.83
2019-04-20T15:00:05.598Z,101899.48
2019-04-20T15:02:36.306Z,101893.34
2019-04-20T15:05:07.316Z,101890.63
2019-04-20T15:07:36.673Z,101884.27
2019-04-20T15:10:06.932Z,101888.28
2019-04-20T15:12:45.537Z,101889.81
2019-04-20T15:15:08.442Z,101881.48
2019-04-20T15:17:51.503Z,101878.70
2019-04-20T15:20:37.451Z,101871.80
2019-04-20T15:23:17.493Z,101869.60
2019-04-20T15:25:46.931Z,101871.02
2019-04-20T15:28:16.523Z,101872.86
2019-04-20T15:30:45.905Z,101873.73
2019-04-20T15:33:15.160Z,101870.58
2019-04-20T15:35:45.902Z,101871.02
2019-04-20T15:38:15.514Z,101875.72
2019-04-20T15:40:44.952Z,101869.08
2019-04-20T15:43:17.989Z,101871.20
2019-04-20T15:45:45.466Z,101868.50
2019-04-20T15:48:16.209Z,101866.64
2019-04-20T15:50:45.828Z,101864.75
2019-04-20T15:53:15.619Z,101860.05
2019-04-20T15:55:46.983Z,101863.05
2019-04-20T15:58:16.475Z,101854.72
2019-04-20T16:00:46.665Z,101857.09
2019-04-20T16:03:33.067Z,101853.07
2019-04-20T16:06:05.237Z,101853.13
2019-04-20T16:08:37.247Z,101857.27
2019-04-20T16:11:09.151Z,101854.70
2019-04-20T16:13:44.042Z,101852.36
2019-04-20T16:16:10.090Z,101844.17
2019-04-20T16:18:41.066Z,101855.84
2019-04-20T16:21:16.078Z,101853.80
2019-04-20T16:24:04.620Z,101856.25
2019-04-20T16:27:11.651Z,101853.65
2019-04-20T16:29:41.855Z,101852.22
2019-04-20T16:32:12.281Z,101846.74
2019-04-20T16:34:42.584Z,101840.99
2019-04-20T16:37:12.588Z,101841.33
2019-04-20T16:39:42.877Z,101844.45
2019-04-20T16:42:14.200Z,101844.63
2019-04-20T16:44:43.452Z,101843.09
2019-04-20T16:47:14.238Z,101840.63
2019-04-20T16:49:43.767Z,101840.20
2019-04-20T16:52:13.158Z,101841.75
2019-04-20T16:54:43.762Z,101844.78
2019-04-20T16:57:15.579Z,101838.84
2019-04-20T16:59:48.272Z,101832.59
2019-04-20T17:02:17.463Z,101836.04
2019-04-20T17:04:47.483Z,101836.04
2019-04-20T17:07:33.592Z,101831.11
2019-04-20T17:10:04.121Z,101831.09
2019-04-20T17:12:33.754Z,101824.41
2019-04-20T17:15:03.576Z,101824.09
2019-04-20T17:17:33.611Z,101821.05
2019-04-20T17:20:03.936Z,101825.36
2019-04-20T17:22:33.414Z,101814.84
2019-04-20T17:25:03.959Z,101821.37
2019-04-20T17:27:49.272Z,101824.44
2019-04-20T17:30:52.919Z,101822.53
2019-04-20T17:33:29.925Z,101821.84
2019-04-20T17:36:08.501Z,101817.28
2019-04-20T17:38:37.499Z,101819.45
2019-04-20T17:41:18.167Z,101816.89
2019-04-20T17:43:50.698Z,101814.92
2019-04-20T17:46:12.146Z,101821.06
2019-04-20T17:48:45.193Z,101827.26
2019-04-20T17:51:28.316Z,101824.20
2019-04-20T17:56:40.715Z,101831.80
2019-04-20T17:59:10.387Z,101837.66
2019-04-20T18:02:07.881Z,101832.59
2019-04-20T18:05:00.771Z,101838.39
2019-04-20T18:07:26.960Z,101829.60
2019-04-20T18:09:59.033Z,101835.34
2019-04-20T18:12:10.455Z,101837.56
2019-04-20T18:14:48.942Z,101836.72
2019-04-20T18:17:40.349Z,101837.80
2019-04-20T18:20:03.103Z,101834.36
2019-04-20T18:22:34.088Z,101827.92
2019-04-20T18:25:26.791Z,101830.81
2019-04-20T18:27:53.629Z,101832.47
2019-04-20T18:30:24.122Z,101833.05
2019-04-20T18:32:41.162Z,101833.58
2019-04-20T18:35:16.259Z,101832.59
2019-04-20T18:37:55.620Z,101836.23
2019-04-20T18:40:29.831Z,101825.59
2019-04-20T18:42:57.190Z,101832.69
2019-04-20T18:45:33.750Z,101834.65
2019-04-20T18:48:14.750Z,101837.34
2019-04-20T18:50:27.717Z,101838.59
2019-04-20T18:52:53.962Z,101847.06
2019-04-20T18:55:36.952Z,101846.57
2019-04-20T18:57:55.133Z,101847.47
2019-04-20T19:00:31.550Z,101850.69
2019-04-20T19:03:01.364Z,101846.91
2019-04-20T19:05:27.881Z,101839.45
2019-04-20T19:08:02.839Z,101849.60
2019-04-20T19:10:32.805Z,101850.45
2019-04-20T19:13:07.996Z,101849.74
2019-04-20T19:16:13.356Z,101850.69
2019-04-20T19:19:04.080Z,101854.13
2019-04-20T19:21:22.710Z,101853.63
2019-04-20T19:24:00.289Z,101847.58
2019-04-20T19:26:23.801Z,101857.65
2019-04-20T19:28:57.785Z,101863.45
2019-04-20T19:31:39.344Z,101857.91
2019-04-20T19:34:16.814Z,101858.48
2019-04-20T19:36:34.876Z,101856.66
2019-04-20T19:39:15.142Z,101860.84
2019-04-20T19:41:41.755Z,101867.66
2019-04-20T19:44:15.181Z,101861.58
2019-04-20T19:47:09.139Z,101865.66
2019-04-20T19:49:18.366Z,101864.65
2019-04-20T19:52:02.745Z,101866.73
2019-04-20T19:54:23.857Z,101860.94
2019-04-20T19:56:48.537Z,101859.70
2019-04-20T19:59:17.042Z,101862.81
2019-04-20T20:01:37.942Z,101867.37
2019-04-20T20:04:09.851Z,101857.20
2019-04-20T20:06:46.033Z,101866.12
2019-04-20T20:09:12.862Z,101856.98
2019-04-20T20:11:44.113Z,101850.14
2019-04-20T20:14:13.445Z,101862.70
2019-04-20T20:17:06.827Z,101854.03
2019-04-20T20:19:29.536Z,101859.11
2019-04-20T20:22:00.372Z,101855.47
2019-04-20T20:24:17.664Z,101859.50
2019-04-20T20:26:53.382Z,101861.86
2019-04-20T20:29:26.213Z,101856.51
2019-04-20T20:32:02.021Z,101859.37
2019-04-20T20:34:28.690Z,101863.38
2019-04-20T20:36:55.943Z,101858.87
2019-04-20T20:39:27.594Z,101862.92
2019-04-20T20:42:01.678Z,101856.58
2019-04-20T20:44:36.061Z,101855.55
2019-04-20T20:47:10.591Z,101856.89
2019-04-20T20:49:48.628Z,101852.56
2019-04-20T20:52:17.047Z,101858.61
2019-04-20T20:54:41.237Z,101858.97
2019-04-20T20:57:07.395Z,101858.30
2019-04-20T20:59:42.957Z,101862.97
2019-04-20T21:02:08.889Z,101862.31
2019-04-20T21:04:33.894Z,101858.00
2019-04-20T21:07:04.656Z,101863.14
2019-04-20T21:09:35.395Z,101858.95
2019-04-20T21:12:10.797Z,101862.98
2019-04-20T21:14:40.194Z,101868.98
2019-04-20T21:17:15.214Z,101872.48
2019-04-20T21:19:53.841Z,101865.64
2019-04-20T21:22:18.045Z,101856.63
2019-04-20T21:24:42.966Z,101858.80
2019-04-20T21:27:17.042Z,101858.50
2019-04-20T21:29:50.518Z,101857.13
2019-04-20T21:32:18.050Z,101857.31
2019-04-20T21:34:53.562Z,101852.64
2019-04-20T21:37:20.042Z,101858.99
2019-04-20T21:39:54.152Z,101854.49
2019-04-20T21:42:22.869Z,101849.98
2019-04-20T21:44:53.703Z,101852.00
2019-04-20T21:47:28.146Z,101847.95
2019-04-20T21:50:12.642Z,101842.44
2019-04-20T21:52:32.575Z,101841.60
2019-04-20T21:54:56.207Z,101844.80
2019-04-20T21:57:26.224Z,101838.93
2019-04-20T22:00:02.590Z,101837.59
2019-04-20T22:02:33.845Z,101838.93
2019-04-20T22:04:58.548Z,101839.30
2019-04-20T22:07:28.293Z,101842.80
2019-04-20T22:09:58.524Z,101840.28
2019-04-20T22:12:37.575Z,101839.29
2019-04-20T22:15:07.472Z,101837.30
2019-04-20T22:17:33.085Z,101828.62
2019-04-20T22:20:12.136Z,101828.80
2019-04-20T22:22:50.812Z,101830.63
2019-04-20T22:25:23.433Z,101826.80
2019-04-20T22:27:37.504Z,101828.28
2019-04-20T22:30:08.213Z,101824.61
2019-04-20T22:32:45.015Z,101819.11
2019-04-20T22:35:13.970Z,101816.91
2019-04-20T22:37:47.790Z,101813.25
2019-04-20T22:40:24.350Z,101815.27
2019-04-20T22:42:54.308Z,101810.91
2019-04-20T22:45:21.208Z,101815.94
2019-04-20T22:47:52.977Z,101811.27
2019-04-20T22:50:33.333Z,101807.23
2019-04-20T22:53:06.626Z,101807.23
2019-04-20T22:55:47.384Z,101810.38
2019-04-20T22:58:03.613Z,101805.20
2019-04-20T23:00:34.760Z,101806.50
2019-04-20T23:02:58.710Z,101801.49
2019-04-20T23:05:28.853Z,101801.98
2019-04-20T23:07:58.943Z,101799.29
2019-04-20T23:10:35.808Z,101799.29
2019-04-20T23:12:59.711Z,101796.80
2019-04-20T23:15:30.132Z,101796.63
2019-04-20T23:18:00.088Z,101794.41
2019-04-20T23:20:32.587Z,101788.42
2019-04-20T23:23:00.914Z,101788.77
2019-04-20T23:25:31.276Z,101783.58
2019-04-20T23:28:09.456Z,101784.73
2019-04-20T23:30:37.354Z,101784.39
2019-04-20T23:33:02.558Z,101779.72
2019-04-20T23:35:33.372Z,101775.72
2019-04-20T23:38:10.159Z,101776.04
2019-04-20T23:40:34.035Z,101774.70
2019-04-20T23:43:17.779Z,101771.02
2019-04-20T23:46:09.259Z,101773.33
2019-04-20T23:48:42.977Z,101768.33
2019-04-20T23:51:36.971Z,101774.30
2019-04-20T23:53:53.941Z,101772.44
2019-04-20T23:56:16.933Z,101768.72
2019-04-20T23:58:49.593Z,101765.86
